createdAt,value
2022-12-13T00:01:18.904Z,2.10
2022-12-13T00:03:46.933Z,2.43
2022-12-13T00:06:15.118Z,2.43
2022-12-13T00:08:43.136Z,2.30
2022-12-13T00:11:12.557Z,3.07
2022-12-13T00:13:42.449Z,2.13
2022-12-13T00:16:12.142Z,2.33
2022-12-13T00:18:40.230Z,2.30
2022-12-13T00:21:08.748Z,2.50
2022-12-13T00:23:36.632Z,2.67
2022-12-13T00:26:05.374Z,2.70
2022-12-13T00:28:33.247Z,2.93
2022-12-13T00:31:26.918Z,2.37
2022-12-13T00:33:50.468Z,2.40
2022-12-13T00:36:18.392Z,2.47
2022-12-13T00:38:46.319Z,2.37
2022-12-13T00:41:14.812Z,2.53
2022-12-13T00:43:42.825Z,2.20
2022-12-13T00:46:14.928Z,2.13
2022-12-13T00:48:42.927Z,2.17
2022-12-13T00:51:11.215Z,2.77
2022-12-13T00:53:39.143Z,2.10
2022-12-13T00:56:11.596Z,2.50
2022-12-13T00:58:39.486Z,2.63
2022-12-13T01:01:08.101Z,2.20
2022-12-13T01:03:37.508Z,2.03
2022-12-13T01:06:15.391Z,2.10
2022-12-13T01:08:44.080Z,2.40
2022-12-13T01:11:12.129Z,2.27
2022-12-13T01:13:40.059Z,2.20
2022-12-13T01:16:09.076Z,2.80
2022-12-13T01:18:38.438Z,2.47
2022-12-13T01:21:07.332Z,2.10
2022-12-13T01:23:35.589Z,2.03
2022-12-13T01:26:03.881Z,2.63
2022-12-13T01:28:31.756Z,1.87
2022-12-13T01:31:00.805Z,2.33
2022-12-13T01:33:29.001Z,2.57
2022-12-13T01:35:58.321Z,2.00
2022-12-13T01:38:26.551Z,2.10
2022-12-13T01:40:58.752Z,2.17
2022-12-13T01:43:27.431Z,2.03
2022-12-13T01:45:55.379Z,1.90
2022-12-13T01:48:25.805Z,1.87
2022-12-13T01:50:54.374Z,2.30
2022-12-13T01:53:25.977Z,2.40
2022-12-13T01:55:55.488Z,1.83
2022-12-13T01:58:23.522Z,1.70
2022-12-13T02:00:51.438Z,1.80
2022-12-13T02:03:20.883Z,2.20
2022-12-13T02:05:53.667Z,2.20
2022-12-13T02:08:22.998Z,1.90
2022-12-13T02:10:50.901Z,2.17
2022-12-13T02:13:18.816Z,1.90
2022-12-13T02:15:58.634Z,2.00
2022-12-13T02:18:33.526Z,1.60
2022-12-13T02:21:23.141Z,2.30
2022-12-13T02:24:25.951Z,2.00
2022-12-13T02:27:00.684Z,1.80
2022-12-13T02:29:57.968Z,1.90
2022-12-13T02:32:29.769Z,1.77
2022-12-13T02:34:59.121Z,2.00
2022-12-13T02:37:28.103Z,2.00
2022-12-13T02:39:58.427Z,1.70
2022-12-13T02:42:27.384Z,1.90
2022-12-13T02:44:56.677Z,1.90
2022-12-13T02:47:25.223Z,2.30
2022-12-13T02:49:56.760Z,2.00
2022-12-13T02:52:26.804Z,1.80
2022-12-13T02:54:55.243Z,1.80
2022-12-13T02:57:33.040Z,2.10
2022-12-13T03:00:02.352Z,2.10
2022-12-13T03:02:34.129Z,2.03
2022-12-13T03:05:22.873Z,1.97
2022-12-13T03:07:54.289Z,2.10
2022-12-13T03:10:23.430Z,2.00
2022-12-13T03:13:09.266Z,2.03
2022-12-13T03:15:40.258Z,1.93
2022-12-13T03:18:15.437Z,2.23
2022-12-13T03:20:47.771Z,1.87
2022-12-13T03:23:15.788Z,1.80
2022-12-13T03:25:43.691Z,2.00
2022-12-13T03:28:12.529Z,2.07
2022-12-13T03:30:40.573Z,1.90
2022-12-13T03:33:08.458Z,1.50
2022-12-13T03:35:45.069Z,2.00
2022-12-13T03:38:21.810Z,1.90
2022-12-13T03:40:52.233Z,2.00
2022-12-13T03:43:22.151Z,1.87
2022-12-13T03:45:51.277Z,2.90
2022-12-13T03:48:22.347Z,2.27
2022-12-13T03:50:50.893Z,1.60
2022-12-13T03:53:23.062Z,1.80
2022-12-13T03:56:02.007Z,1.83
2022-12-13T03:58:35.014Z,1.70
2022-12-13T04:01:04.942Z,2.20
2022-12-13T04:03:32.844Z,2.20
2022-12-13T04:06:00.725Z,2.10
2022-12-13T04:08:30.153Z,1.70
2022-12-13T04:10:58.090Z,1.73
2022-12-13T04:13:33.668Z,2.30
2022-12-13T04:16:01.805Z,1.97
2022-12-13T04:18:29.833Z,1.40
2022-12-13T04:20:58.381Z,2.00
2022-12-13T04:23:26.249Z,2.10
2022-12-13T04:25:55.669Z,2.07
2022-12-13T04:28:23.514Z,2.10
2022-12-13T04:30:53.648Z,1.83
2022-12-13T04:33:22.347Z,1.90
2022-12-13T04:35:50.609Z,1.87
2022-12-13T04:38:18.508Z,1.60
2022-12-13T04:40:46.362Z,1.90
2022-12-13T04:43:15.956Z,2.00
2022-12-13T04:45:43.925Z,2.20
2022-12-13T04:48:11.838Z,2.10
2022-12-13T04:50:39.706Z,1.80
2022-12-13T04:53:07.649Z,1.70
2022-12-13T04:55:35.528Z,1.60
2022-12-13T04:58:03.389Z,1.90
2022-12-13T05:00:32.716Z,1.60
2022-12-13T05:03:00.752Z,2.07
2022-12-13T05:05:28.621Z,1.93
2022-12-13T05:07:56.690Z,1.90
2022-12-13T05:10:35.849Z,1.67
2022-12-13T05:13:05.500Z,2.10
2022-12-13T05:15:34.835Z,1.83
2022-12-13T05:18:10.060Z,1.63
2022-12-13T05:20:39.320Z,2.00
2022-12-13T05:23:07.203Z,1.77
2022-12-13T05:25:37.076Z,1.77
2022-12-13T05:28:08.752Z,1.70
2022-12-13T05:30:54.971Z,1.90
2022-12-13T05:33:22.983Z,1.70
2022-12-13T05:35:52.956Z,1.77
2022-12-13T05:38:24.316Z,1.93
2022-12-13T05:40:52.330Z,2.00
2022-12-13T05:43:21.300Z,1.80
2022-12-13T05:45:49.732Z,2.10
2022-12-13T05:48:24.588Z,1.77
2022-12-13T05:51:10.244Z,2.13
2022-12-13T05:53:39.372Z,2.20
2022-12-13T05:56:13.353Z,1.70
2022-12-13T05:58:53.422Z,1.87
2022-12-13T06:01:21.731Z,1.97
2022-12-13T06:03:51.030Z,1.50
2022-12-13T06:06:19.159Z,1.70
2022-12-13T06:08:47.096Z,1.77
2022-12-13T06:11:31.179Z,1.97
2022-12-13T06:14:01.006Z,1.60
2022-12-13T06:16:29.367Z,1.63
2022-12-13T06:19:04.156Z,2.10
2022-12-13T06:21:41.058Z,1.90
2022-12-13T06:24:13.910Z,1.57
2022-12-13T06:26:41.811Z,1.67
2022-12-13T06:29:10.391Z,1.80
2022-12-13T06:31:38.331Z,1.67
2022-12-13T06:34:14.346Z,1.63
2022-12-13T06:36:43.430Z,2.13
2022-12-13T06:39:11.311Z,2.30
2022-12-13T06:41:39.237Z,2.60
2022-12-13T06:44:07.364Z,2.90
2022-12-13T06:46:35.285Z,3.00
2022-12-13T06:49:03.253Z,2.47
2022-12-13T06:51:33.619Z,2.57
2022-12-13T06:54:02.185Z,2.47
2022-12-13T06:56:30.202Z,2.20
2022-12-13T06:59:01.498Z,2.10
2022-12-13T07:01:36.737Z,2.13
2022-12-13T07:04:29.628Z,2.27
2022-12-13T07:06:55.571Z,2.20
2022-12-13T07:09:29.339Z,1.73
2022-12-13T07:11:57.301Z,2.07
2022-12-13T07:14:25.170Z,1.50
2022-12-13T07:16:57.960Z,2.37
2022-12-13T07:19:35.582Z,1.70
2022-12-13T07:22:11.474Z,1.63
2022-12-13T07:24:39.474Z,1.80
2022-12-13T07:27:07.333Z,2.10
2022-12-13T07:29:35.251Z,2.83
2022-12-13T07:32:03.144Z,3.20
2022-12-13T07:34:31.078Z,3.00
2022-12-13T07:36:58.985Z,2.30
2022-12-13T07:39:28.493Z,2.37
2022-12-13T07:41:56.862Z,2.70
2022-12-13T07:44:24.791Z,2.60
2022-12-13T07:46:52.972Z,2.63
2022-12-13T07:49:26.954Z,2.43
2022-12-13T07:51:54.854Z,2.20
2022-12-13T07:54:22.947Z,2.00
2022-12-13T07:56:52.218Z,2.20
2022-12-13T07:59:28.201Z,2.77
2022-12-13T08:01:57.057Z,2.13
2022-12-13T08:04:29.866Z,2.10
2022-12-13T08:07:08.787Z,1.90
2022-12-13T08:09:36.730Z,2.10
2022-12-13T08:12:06.413Z,2.20
2022-12-13T08:14:34.594Z,1.90
2022-12-13T08:17:02.488Z,2.00
2022-12-13T08:19:30.351Z,2.10
2022-12-13T08:22:01.686Z,2.10
2022-12-13T08:24:30.751Z,2.20
2022-12-13T08:27:01.228Z,2.10
2022-12-13T08:29:34.219Z,2.50
2022-12-13T08:32:03.567Z,2.20
2022-12-13T08:34:31.886Z,2.03
2022-12-13T08:37:02.199Z,2.10
2022-12-13T08:39:34.580Z,1.70
2022-12-13T08:42:16.229Z,2.10
2022-12-13T08:44:48.187Z,1.73
2022-12-13T08:47:24.874Z,1.90
2022-12-13T08:49:55.172Z,2.33
2022-12-13T08:52:23.838Z,1.93
2022-12-13T08:54:51.836Z,1.83
2022-12-13T08:57:19.732Z,1.83
2022-12-13T08:59:49.201Z,1.70
2022-12-13T09:02:17.243Z,1.93
2022-12-13T09:04:45.174Z,2.03
2022-12-13T09:07:15.980Z,2.13
2022-12-13T09:09:43.843Z,1.70
2022-12-13T09:12:30.337Z,1.90
2022-12-13T09:15:01.198Z,2.27
2022-12-13T09:17:36.550Z,1.73
2022-12-13T09:20:09.701Z,1.83
2022-12-13T09:23:02.100Z,2.07
2022-12-13T09:25:37.137Z,1.77
2022-12-13T09:28:06.972Z,1.53
2022-12-13T09:30:36.226Z,1.80
2022-12-13T09:33:28.062Z,1.90
2022-12-13T09:35:52.313Z,1.83
2022-12-13T09:38:20.318Z,2.37
2022-12-13T09:40:49.397Z,2.30
2022-12-13T09:43:23.011Z,2.00
2022-12-13T09:46:01.690Z,2.07
2022-12-13T09:48:29.959Z,1.90
2022-12-13T09:51:17.328Z,1.83
2022-12-13T09:53:51.952Z,1.90
2022-12-13T09:56:20.490Z,1.90
2022-12-13T09:58:49.474Z,1.93
2022-12-13T10:01:22.958Z,1.80
2022-12-13T10:04:02.046Z,2.30
2022-12-13T10:06:32.700Z,1.83
2022-12-13T10:09:01.392Z,1.80
2022-12-13T10:11:31.392Z,1.80
2022-12-13T10:14:02.336Z,1.50
2022-12-13T10:16:36.290Z,1.80
2022-12-13T10:19:09.821Z,2.00
2022-12-13T10:22:01.569Z,1.67
2022-12-13T10:24:36.807Z,1.70
2022-12-13T10:27:12.128Z,1.80
2022-12-13T10:30:03.321Z,1.77
2022-12-13T10:32:38.055Z,1.60
2022-12-13T10:35:13.970Z,1.63
2022-12-13T10:37:41.884Z,1.80
2022-12-13T10:40:33.056Z,1.50
2022-12-13T10:43:08.791Z,1.57
2022-12-13T10:45:36.697Z,1.97
2022-12-13T10:48:06.352Z,1.67
2022-12-13T10:50:34.308Z,1.70
2022-12-13T10:53:02.277Z,1.57
2022-12-13T10:55:31.754Z,2.10
2022-12-13T10:58:00.906Z,1.60
2022-12-13T11:00:35.037Z,2.27
2022-12-13T11:03:02.983Z,2.47
2022-12-13T11:05:33.548Z,4.00
2022-12-13T11:08:14.748Z,3.47
2022-12-13T11:10:42.800Z,4.30
2022-12-13T11:13:10.731Z,4.10
2022-12-13T11:15:39.212Z,3.50
2022-12-13T11:18:08.930Z,4.00
2022-12-13T11:20:38.946Z,3.73
2022-12-13T11:23:08.325Z,3.80
2022-12-13T11:25:40.165Z,3.53
2022-12-13T11:28:26.444Z,3.13
2022-12-13T11:31:01.505Z,3.90
2022-12-13T11:33:33.912Z,3.30
2022-12-13T11:36:21.639Z,4.90
2022-12-13T11:39:02.791Z,4.17
2022-12-13T11:41:33.084Z,3.13
2022-12-13T11:44:02.802Z,3.20
2022-12-13T11:46:36.186Z,4.40
2022-12-13T11:49:10.414Z,3.57
2022-12-13T11:51:41.796Z,3.50
2022-12-13T11:54:11.952Z,3.23
2022-12-13T11:56:42.011Z,3.47
2022-12-13T11:59:20.715Z,3.90
2022-12-13T12:01:54.880Z,3.03
2022-12-13T12:04:24.874Z,3.67
2022-12-13T12:07:08.272Z,2.87
2022-12-13T12:09:50.226Z,3.67
2022-12-13T12:12:22.228Z,3.80
2022-12-13T12:14:53.284Z,3.27
2022-12-13T12:17:23.520Z,3.90
2022-12-13T12:19:53.410Z,3.20
2022-12-13T12:22:36.289Z,3.20
2022-12-13T12:25:20.451Z,3.20
2022-12-13T12:27:50.791Z,3.40
2022-12-13T12:30:23.305Z,3.33
2022-12-13T12:32:56.867Z,2.70
2022-12-13T12:35:53.251Z,3.37
2022-12-13T12:38:53.916Z,3.17
2022-12-13T12:41:30.466Z,3.50
2022-12-13T12:44:05.170Z,3.63
2022-12-13T12:47:08.747Z,3.83
2022-12-13T12:49:37.606Z,2.90
2022-12-13T12:52:07.722Z,3.17
2022-12-13T12:54:43.396Z,3.70
2022-12-13T12:57:16.192Z,3.30
2022-12-13T12:59:49.806Z,2.80
2022-12-13T13:02:20.037Z,3.50
2022-12-13T13:04:49.692Z,3.10
2022-12-13T13:07:23.237Z,2.93
2022-12-13T13:09:55.069Z,3.23
2022-12-13T13:12:29.022Z,3.53
2022-12-13T13:14:58.639Z,2.67
2022-12-13T13:17:48.458Z,3.10
2022-12-13T13:20:23.182Z,2.80
2022-12-13T13:23:10.457Z,3.70
2022-12-13T13:25:54.330Z,2.57
2022-12-13T13:28:29.172Z,3.13
2022-12-13T13:31:03.283Z,3.30
2022-12-13T13:33:45.090Z,3.13
2022-12-13T13:36:44.921Z,2.53
2022-12-13T13:39:16.585Z,2.60
2022-12-13T13:42:17.966Z,3.20
2022-12-13T13:45:15.592Z,3.10
2022-12-13T13:47:45.413Z,3.27
2022-12-13T13:50:52.638Z,2.73
2022-12-13T13:53:36.043Z,2.83
2022-12-13T13:56:09.145Z,3.00
2022-12-13T13:59:15.951Z,2.43
2022-12-13T14:02:14.759Z,3.10
2022-12-13T14:05:24.892Z,3.60
2022-12-13T14:08:20.649Z,3.57
2022-12-13T14:10:52.665Z,3.10
2022-12-13T14:13:48.787Z,3.47
2022-12-13T14:17:06.924Z,3.23
2022-12-13T14:20:12.932Z,3.00
2022-12-13T14:22:43.933Z,3.23
2022-12-13T14:25:40.338Z,3.80
2022-12-13T14:28:12.503Z,3.40
2022-12-13T14:30:42.877Z,2.40
2022-12-13T14:33:19.596Z,3.07
2022-12-13T14:35:52.113Z,3.20
2022-12-13T14:38:23.848Z,3.03
2022-12-13T14:40:52.761Z,3.10
2022-12-13T14:43:24.876Z,3.27
2022-12-13T14:45:57.723Z,2.70
2022-12-13T14:48:28.020Z,3.40
2022-12-13T14:50:57.008Z,4.00
2022-12-13T14:53:28.200Z,3.10
2022-12-13T14:56:09.795Z,2.87
2022-12-13T14:58:38.162Z,3.30
2022-12-13T15:01:06.261Z,3.23
2022-12-13T15:03:35.136Z,2.70
2022-12-13T15:06:03.303Z,2.87
2022-12-13T15:08:32.650Z,2.63
2022-12-13T15:11:03.087Z,2.70
2022-12-13T15:13:35.386Z,3.83
2022-12-13T15:16:10.382Z,2.80
2022-12-13T15:18:38.844Z,2.80
2022-12-13T15:21:18.949Z,2.47
2022-12-13T15:23:49.099Z,3.30
2022-12-13T15:26:28.820Z,3.23
2022-12-13T15:28:58.340Z,2.63
2022-12-13T15:31:26.335Z,2.80
2022-12-13T15:34:01.293Z,2.40
2022-12-13T15:36:29.538Z,2.80
2022-12-13T15:39:02.690Z,2.57
2022-12-13T15:41:31.404Z,3.07
2022-12-13T15:44:02.170Z,3.20
2022-12-13T15:46:31.036Z,2.40
2022-12-13T15:49:00.144Z,2.20
2022-12-13T15:51:29.054Z,2.93
2022-12-13T15:54:07.945Z,2.60
2022-12-13T15:56:36.702Z,2.93
2022-12-13T15:59:05.508Z,2.93
2022-12-13T16:01:35.164Z,3.00
2022-12-13T16:04:03.726Z,2.77
2022-12-13T16:06:32.721Z,2.80
2022-12-13T16:09:07.922Z,3.30
2022-12-13T16:11:36.589Z,2.83
2022-12-13T16:14:34.183Z,2.90
2022-12-13T16:17:08.235Z,2.90
2022-12-13T16:19:36.590Z,2.90
2022-12-13T16:22:08.674Z,3.23
2022-12-13T16:24:38.652Z,2.90
2022-12-13T16:27:08.497Z,2.90
2022-12-13T16:29:36.913Z,2.90
2022-12-13T16:32:08.646Z,2.53
2022-12-13T16:34:36.845Z,2.87
2022-12-13T16:37:08.884Z,3.33
2022-12-13T16:39:54.087Z,2.90
2022-12-13T16:42:26.061Z,2.80
2022-12-13T16:45:11.605Z,3.30
2022-12-13T16:47:48.489Z,2.30
2022-12-13T16:50:18.203Z,2.90
2022-12-13T16:52:46.120Z,3.13
2022-12-13T16:55:15.545Z,3.37
2022-12-13T16:57:43.475Z,2.87
2022-12-13T17:00:13.776Z,2.80
2022-12-13T17:02:42.098Z,2.97
2022-12-13T17:05:10.318Z,2.87
2022-12-13T17:07:38.224Z,3.57
2022-12-13T17:10:07.117Z,3.00
2022-12-13T17:12:36.394Z,3.30
2022-12-13T17:15:04.587Z,2.97
2022-12-13T17:17:37.428Z,3.10
2022-12-13T17:20:09.269Z,3.50
2022-12-13T17:22:37.194Z,3.00
2022-12-13T17:25:05.287Z,2.57
2022-12-13T17:27:33.252Z,3.80
2022-12-13T17:30:02.514Z,3.70
2022-12-13T17:32:30.666Z,3.43
2022-12-13T17:34:58.754Z,3.70
2022-12-13T17:37:26.849Z,3.07
2022-12-13T17:39:54.689Z,3.07
2022-12-13T17:42:22.793Z,3.43
2022-12-13T17:44:50.694Z,3.40
2022-12-13T17:47:20.020Z,3.70
2022-12-13T17:49:48.070Z,3.30
2022-12-13T17:52:16.178Z,3.13
2022-12-13T17:54:44.277Z,3.40
2022-12-13T17:57:12.221Z,3.27
2022-12-13T17:59:43.167Z,3.47
2022-12-13T18:02:12.245Z,2.93
2022-12-13T18:04:42.172Z,3.50
2022-12-13T18:07:10.344Z,3.47
2022-12-13T18:09:38.288Z,3.67
2022-12-13T18:12:08.351Z,3.47
2022-12-13T18:14:36.300Z,3.40
2022-12-13T18:17:04.243Z,3.07
2022-12-13T18:19:32.219Z,3.30
2022-12-13T18:22:01.595Z,4.37
2022-12-13T18:24:29.528Z,3.03
2022-12-13T18:26:57.424Z,2.87
2022-12-13T18:29:25.352Z,4.30
2022-12-13T18:31:53.197Z,3.50
2022-12-13T18:34:21.071Z,3.60
2022-12-13T18:36:48.986Z,3.37
2022-12-13T18:39:18.243Z,3.63
2022-12-13T18:41:46.152Z,4.03
2022-12-13T18:44:14.111Z,3.73
2022-12-13T18:46:45.895Z,3.60
2022-12-13T18:49:14.395Z,3.53
2022-12-13T18:51:42.313Z,3.27
2022-12-13T18:54:10.225Z,3.40
2022-12-13T18:56:39.461Z,3.30
2022-12-13T18:59:07.378Z,3.60
2022-12-13T19:01:35.774Z,2.87
2022-12-13T19:04:03.790Z,3.43
2022-12-13T19:06:31.681Z,3.43
2022-12-13T19:08:59.713Z,3.20
2022-12-13T19:11:27.965Z,3.50
2022-12-13T19:13:57.360Z,3.23
2022-12-13T19:16:25.341Z,3.50
2022-12-13T19:18:53.346Z,4.20
2022-12-13T19:21:22.027Z,3.47
2022-12-13T19:23:55.850Z,3.33
2022-12-13T19:26:25.220Z,2.77
2022-12-13T19:28:53.077Z,3.13
2022-12-13T19:31:27.089Z,3.03
2022-12-13T19:33:59.098Z,4.03
2022-12-13T19:36:27.024Z,3.80
2022-12-13T19:38:56.733Z,2.93
2022-12-13T19:41:24.652Z,3.63
2022-12-13T19:43:53.623Z,3.73
2022-12-13T19:46:22.888Z,3.33
2022-12-13T19:48:50.973Z,3.63
2022-12-13T19:51:18.871Z,3.30
2022-12-13T19:53:46.749Z,3.57
2022-12-13T19:56:15.317Z,3.43
2022-12-13T19:58:43.175Z,3.20
2022-12-13T20:01:11.314Z,3.23
2022-12-13T20:03:41.877Z,2.93
2022-12-13T20:06:11.291Z,3.20
2022-12-13T20:08:39.196Z,4.57
2022-12-13T20:11:08.431Z,2.97
2022-12-13T20:13:36.483Z,3.30
2022-12-13T20:16:04.926Z,4.50
2022-12-13T20:18:44.777Z,2.97
2022-12-13T20:21:14.664Z,3.17
2022-12-13T20:23:48.683Z,3.73
2022-12-13T20:26:18.475Z,3.70
2022-12-13T20:28:46.371Z,3.80
2022-12-13T20:31:15.004Z,3.63
2022-12-13T20:33:44.404Z,4.00
2022-12-13T20:36:24.302Z,3.63
2022-12-13T20:38:53.474Z,3.83
2022-12-13T20:41:21.346Z,3.50
2022-12-13T20:43:52.347Z,2.60
2022-12-13T20:46:20.438Z,3.50
2022-12-13T20:48:50.004Z,4.20
2022-12-13T20:51:19.343Z,3.43
2022-12-13T20:53:48.279Z,2.70
2022-12-13T20:56:17.176Z,3.20
2022-12-13T20:58:45.096Z,3.27
2022-12-13T21:01:15.320Z,2.67
2022-12-13T21:03:43.230Z,3.10
2022-12-13T21:06:12.549Z,2.57
2022-12-13T21:08:52.194Z,2.50
2022-12-13T21:11:26.615Z,3.03
2022-12-13T21:14:02.436Z,3.30
2022-12-13T21:16:34.644Z,3.13
2022-12-13T21:19:02.584Z,2.87
2022-12-13T21:21:31.900Z,3.00
2022-12-13T21:24:00.090Z,3.03
2022-12-13T21:26:34.616Z,3.00
2022-12-13T21:29:04.145Z,2.93
2022-12-13T21:31:32.172Z,3.10
2022-12-13T21:34:00.806Z,3.73
2022-12-13T21:36:29.499Z,3.00
2022-12-13T21:39:00.252Z,3.00
2022-12-13T21:41:28.234Z,3.10
2022-12-13T21:43:56.173Z,3.30
2022-12-13T21:46:31.284Z,3.40
2022-12-13T21:49:12.890Z,3.07
2022-12-13T21:51:46.036Z,3.10
2022-12-13T21:54:17.926Z,2.83
2022-12-13T21:57:03.173Z,3.50
2022-12-13T21:59:31.768Z,2.73
2022-12-13T22:02:13.284Z,3.00
2022-12-13T22:04:43.390Z,2.60
2022-12-13T22:07:12.264Z,2.47
2022-12-13T22:09:41.550Z,3.40
2022-12-13T22:12:09.917Z,2.57
2022-12-13T22:14:37.861Z,2.60
2022-12-13T22:17:05.728Z,2.73
2022-12-13T22:19:33.634Z,2.97
2022-12-13T22:22:01.565Z,2.43
2022-12-13T22:24:29.475Z,3.20
2022-12-13T22:26:58.764Z,3.53
2022-12-13T22:29:26.859Z,3.13
2022-12-13T22:31:54.784Z,2.90
2022-12-13T22:34:22.833Z,2.27
2022-12-13T22:36:50.746Z,2.87
2022-12-13T22:39:18.987Z,2.87
2022-12-13T22:41:47.167Z,2.90
2022-12-13T22:44:17.030Z,2.50
2022-12-13T22:46:45.012Z,2.77
2022-12-13T22:49:12.985Z,2.40
2022-12-13T22:51:41.095Z,2.53
2022-12-13T22:54:09.202Z,2.70
2022-12-13T22:56:37.170Z,2.70
2022-12-13T22:59:07.129Z,3.30
2022-12-13T23:01:37.405Z,2.87
2022-12-13T23:04:05.933Z,2.97
2022-12-13T23:06:34.371Z,3.23
2022-12-13T23:09:03.457Z,2.87
2022-12-13T23:11:48.963Z,2.60
2022-12-13T23:14:17.981Z,2.63
2022-12-13T23:16:47.254Z,2.90
2022-12-13T23:22:06.253Z,3.00
2022-12-13T23:24:34.158Z,3.37
2022-12-13T23:27:02.056Z,2.90
2022-12-13T23:29:30.010Z,2.63
2022-12-13T23:31:59.262Z,2.80
2022-12-13T23:34:27.467Z,3.07
2022-12-13T23:36:55.407Z,2.70
2022-12-13T23:39:23.296Z,2.70
2022-12-13T23:41:51.206Z,2.80
2022-12-13T23:44:19.156Z,2.90
2022-12-13T23:46:48.771Z,2.67
2022-12-13T23:49:18.581Z,3.20
2022-12-13T23:51:46.498Z,2.73
2022-12-13T23:54:17.702Z,2.50
2022-12-13T23:56:45.656Z,2.60
2022-12-13T23:59:13.866Z,2.70
